sensor_id;sensor_type;location;lat;lon;timestamp;P1;durP1;ratioP1;P2;durP2;ratioP2
11791;SDS011;5953;52.372;9.918;2023-04-01T00:00:32;3.03;;;1.10;;
11791;SDS011;5953;52.372;9.918;2023-04-01T00:02:59;1.83;;;1.30;;
11791;SDS011;5953;52.372;9.918;2023-04-01T00:05:27;2.90;;;1.40;;
11791;SDS011;5953;52.372;9.918;2023-04-01T00:07:55;3.87;;;1.10;;
11791;SDS011;5953;52.372;9.918;2023-04-01T00:10:23;2.87;;;1.03;;
11791;SDS011;5953;52.372;9.918;2023-04-01T00:12:52;3.93;;;1.23;;
11791;SDS011;5953;52.372;9.918;2023-04-01T00:15:20;3.00;;;1.20;;
11791;SDS011;5953;52.372;9.918;2023-04-01T00:17:48;2.50;;;1.37;;
11791;SDS011;5953;52.372;9.918;2023-04-01T00:20:16;7.73;;;1.40;;
11791;SDS011;5953;52.372;9.918;2023-04-01T00:22:44;3.23;;;1.43;;
11791;SDS011;5953;52.372;9.918;2023-04-01T00:25:12;3.70;;;1.47;;
11791;SDS011;5953;52.372;9.918;2023-04-01T00:27:40;1.77;;;1.20;;
11791;SDS011;5953;52.372;9.918;2023-04-01T00:30:10;3.93;;;1.37;;
11791;SDS011;5953;52.372;9.918;2023-04-01T00:32:38;4.57;;;1.23;;
11791;SDS011;5953;52.372;9.918;2023-04-01T00:35:06;4.70;;;1.80;;
11791;SDS011;5953;52.372;9.918;2023-04-01T00:37:35;5.03;;;1.60;;
11791;SDS011;5953;52.372;9.918;2023-04-01T00:40:06;4.70;;;1.30;;
11791;SDS011;5953;52.372;9.918;2023-04-01T00:42:35;5.00;;;1.53;;
11791;SDS011;5953;52.372;9.918;2023-04-01T00:47:56;5.23;;;1.40;;
11791;SDS011;5953;52.372;9.918;2023-04-01T00:50:28;4.33;;;2.00;;
11791;SDS011;5953;52.372;9.918;2023-04-01T00:52:58;2.93;;;1.20;;
11791;SDS011;5953;52.372;9.918;2023-04-01T00:55:28;1.60;;;1.13;;
11791;SDS011;5953;52.372;9.918;2023-04-01T00:57:59;3.13;;;1.20;;
11791;SDS011;5953;52.372;9.918;2023-04-01T01:00:30;3.97;;;1.23;;
11791;SDS011;5953;52.372;9.918;2023-04-01T01:02:58;4.17;;;1.20;;
11791;SDS011;5953;52.372;9.918;2023-04-01T01:05:29;4.30;;;1.40;;
11791;SDS011;5953;52.372;9.918;2023-04-01T01:08:15;3.53;;;1.10;;
11791;SDS011;5953;52.372;9.918;2023-04-01T01:10:49;1.70;;;1.10;;
11791;SDS011;5953;52.372;9.918;2023-04-01T01:13:17;4.17;;;1.20;;
11791;SDS011;5953;52.372;9.918;2023-04-01T01:15:56;3.40;;;1.33;;
11791;SDS011;5953;52.372;9.918;2023-04-01T01:18:30;3.23;;;0.93;;
11791;SDS011;5953;52.372;9.918;2023-04-01T01:24:03;4.70;;;1.40;;
11791;SDS011;5953;52.372;9.918;2023-04-01T01:26:53;3.43;;;0.97;;
11791;SDS011;5953;52.372;9.918;2023-04-01T01:35:41;3.93;;;1.23;;
11791;SDS011;5953;52.372;9.918;2023-04-01T01:38:14;3.10;;;1.00;;
11791;SDS011;5953;52.372;9.918;2023-04-01T01:40:44;3.00;;;1.07;;
11791;SDS011;5953;52.372;9.918;2023-04-01T01:43:18;4.03;;;1.10;;
11791;SDS011;5953;52.372;9.918;2023-04-01T01:45:50;3.40;;;1.03;;
11791;SDS011;5953;52.372;9.918;2023-04-01T01:48:22;2.03;;;0.80;;
11791;SDS011;5953;52.372;9.918;2023-04-01T01:50:53;2.50;;;0.80;;
11791;SDS011;5953;52.372;9.918;2023-04-01T01:53:21;2.60;;;0.83;;
11791;SDS011;5953;52.372;9.918;2023-04-01T01:55:49;2.50;;;0.80;;
11791;SDS011;5953;52.372;9.918;2023-04-01T01:58:17;2.43;;;1.00;;
11791;SDS011;5953;52.372;9.918;2023-04-01T02:00:50;1.63;;;0.73;;
11791;SDS011;5953;52.372;9.918;2023-04-01T02:03:21;1.50;;;0.83;;
11791;SDS011;5953;52.372;9.918;2023-04-01T02:05:51;1.47;;;0.83;;
11791;SDS011;5953;52.372;9.918;2023-04-01T02:08:24;3.73;;;1.07;;
11791;SDS011;5953;52.372;9.918;2023-04-01T02:10:56;3.47;;;0.97;;
11791;SDS011;5953;52.372;9.918;2023-04-01T02:13:28;1.70;;;0.60;;
11791;SDS011;5953;52.372;9.918;2023-04-01T02:15:59;1.23;;;0.80;;
11791;SDS011;5953;52.372;9.918;2023-04-01T02:18:29;2.07;;;0.70;;
11791;SDS011;5953;52.372;9.918;2023-04-01T02:21:02;3.97;;;0.80;;
11791;SDS011;5953;52.372;9.918;2023-04-01T02:23:33;1.67;;;0.60;;
11791;SDS011;5953;52.372;9.918;2023-04-01T02:26:02;5.43;;;0.87;;
11791;SDS011;5953;52.372;9.918;2023-04-01T02:28:34;5.03;;;1.20;;
11791;SDS011;5953;52.372;9.918;2023-04-01T02:31:05;3.33;;;0.80;;
11791;SDS011;5953;52.372;9.918;2023-04-01T02:33:35;1.53;;;0.70;;
11791;SDS011;5953;52.372;9.918;2023-04-01T02:36:06;3.60;;;1.00;;
11791;SDS011;5953;52.372;9.918;2023-04-01T02:38:38;1.70;;;0.70;;
11791;SDS011;5953;52.372;9.918;2023-04-01T02:41:06;3.63;;;0.70;;
11791;SDS011;5953;52.372;9.918;2023-04-01T02:43:34;1.60;;;0.57;;
11791;SDS011;5953;52.372;9.918;2023-04-01T02:46:02;1.90;;;0.90;;
11791;SDS011;5953;52.372;9.918;2023-04-01T02:48:30;1.83;;;0.80;;
11791;SDS011;5953;52.372;9.918;2023-04-01T02:50:57;2.43;;;0.70;;
11791;SDS011;5953;52.372;9.918;2023-04-01T02:53:27;1.17;;;0.70;;
11791;SDS011;5953;52.372;9.918;2023-04-01T02:55:54;2.77;;;0.90;;
11791;SDS011;5953;52.372;9.918;2023-04-01T02:58:22;1.40;;;0.60;;
11791;SDS011;5953;52.372;9.918;2023-04-01T03:00:50;0.80;;;0.70;;
11791;SDS011;5953;52.372;9.918;2023-04-01T03:03:18;3.27;;;0.87;;
11791;SDS011;5953;52.372;9.918;2023-04-01T03:05:46;2.07;;;1.00;;
11791;SDS011;5953;52.372;9.918;2023-04-01T03:08:14;1.30;;;0.80;;
11791;SDS011;5953;52.372;9.918;2023-04-01T03:10:43;1.40;;;0.73;;
11791;SDS011;5953;52.372;9.918;2023-04-01T03:13:10;2.47;;;0.90;;
11791;SDS011;5953;52.372;9.918;2023-04-01T03:15:38;2.03;;;0.80;;
11791;SDS011;5953;52.372;9.918;2023-04-01T03:18:06;1.50;;;0.90;;
11791;SDS011;5953;52.372;9.918;2023-04-01T03:20:34;1.33;;;0.53;;
11791;SDS011;5953;52.372;9.918;2023-04-01T03:23:01;1.63;;;1.00;;
11791;SDS011;5953;52.372;9.918;2023-04-01T03:25:29;2.80;;;0.70;;
11791;SDS011;5953;52.372;9.918;2023-04-01T03:27:58;2.90;;;0.93;;
11791;SDS011;5953;52.372;9.918;2023-04-01T03:30:27;6.23;;;0.93;;
11791;SDS011;5953;52.372;9.918;2023-04-01T03:32:56;1.80;;;0.80;;
11791;SDS011;5953;52.372;9.918;2023-04-01T03:35:25;2.33;;;0.80;;
11791;SDS011;5953;52.372;9.918;2023-04-01T03:37:54;3.07;;;0.87;;
11791;SDS011;5953;52.372;9.918;2023-04-01T03:40:22;3.60;;;0.90;;
11791;SDS011;5953;52.372;9.918;2023-04-01T03:42:52;1.47;;;0.70;;
11791;SDS011;5953;52.372;9.918;2023-04-01T03:45:21;2.47;;;0.77;;
11791;SDS011;5953;52.372;9.918;2023-04-01T03:47:49;3.00;;;1.07;;
11791;SDS011;5953;52.372;9.918;2023-04-01T03:50:16;2.57;;;0.80;;
11791;SDS011;5953;52.372;9.918;2023-04-01T03:52:45;2.33;;;0.73;;
11791;SDS011;5953;52.372;9.918;2023-04-01T03:55:13;1.30;;;0.60;;
11791;SDS011;5953;52.372;9.918;2023-04-01T03:57:41;1.73;;;0.93;;
11791;SDS011;5953;52.372;9.918;2023-04-01T04:00:09;2.30;;;1.00;;
11791;SDS011;5953;52.372;9.918;2023-04-01T04:02:39;3.20;;;1.10;;
11791;SDS011;5953;52.372;9.918;2023-04-01T04:05:07;4.30;;;1.10;;
11791;SDS011;5953;52.372;9.918;2023-04-01T04:07:35;1.97;;;1.07;;
11791;SDS011;5953;52.372;9.918;2023-04-01T04:10:04;1.03;;;0.77;;
11791;SDS011;5953;52.372;9.918;2023-04-01T04:12:32;3.57;;;1.17;;
11791;SDS011;5953;52.372;9.918;2023-04-01T04:15:00;1.37;;;1.27;;
11791;SDS011;5953;52.372;9.918;2023-04-01T04:17:27;2.87;;;1.27;;
11791;SDS011;5953;52.372;9.918;2023-04-01T04:19:57;3.63;;;1.27;;
11791;SDS011;5953;52.372;9.918;2023-04-01T04:22:25;2.47;;;1.07;;
11791;SDS011;5953;52.372;9.918;2023-04-01T04:24:52;2.00;;;0.93;;
11791;SDS011;5953;52.372;9.918;2023-04-01T04:27:20;3.33;;;0.80;;
11791;SDS011;5953;52.372;9.918;2023-04-01T04:29:48;2.80;;;1.10;;
11791;SDS011;5953;52.372;9.918;2023-04-01T04:32:16;2.50;;;1.60;;
11791;SDS011;5953;52.372;9.918;2023-04-01T04:34:44;2.27;;;1.10;;
11791;SDS011;5953;52.372;9.918;2023-04-01T04:37:13;5.57;;;1.13;;
11791;SDS011;5953;52.372;9.918;2023-04-01T04:39:40;2.53;;;0.87;;
11791;SDS011;5953;52.372;9.918;2023-04-01T04:42:08;2.53;;;1.03;;
11791;SDS011;5953;52.372;9.918;2023-04-01T04:44:36;2.00;;;0.90;;
11791;SDS011;5953;52.372;9.918;2023-04-01T04:47:04;3.07;;;1.07;;
11791;SDS011;5953;52.372;9.918;2023-04-01T04:49:31;1.17;;;0.67;;
11791;SDS011;5953;52.372;9.918;2023-04-01T04:51:59;2.23;;;1.00;;
11791;SDS011;5953;52.372;9.918;2023-04-01T04:54:28;2.50;;;1.00;;
11791;SDS011;5953;52.372;9.918;2023-04-01T04:56:56;2.97;;;0.80;;
11791;SDS011;5953;52.372;9.918;2023-04-01T04:59:24;4.10;;;1.20;;
11791;SDS011;5953;52.372;9.918;2023-04-01T05:01:52;1.60;;;0.97;;
11791;SDS011;5953;52.372;9.918;2023-04-01T05:04:20;1.13;;;1.03;;
11791;SDS011;5953;52.372;9.918;2023-04-01T05:06:47;2.10;;;1.10;;
11791;SDS011;5953;52.372;9.918;2023-04-01T05:09:15;1.90;;;0.90;;
11791;SDS011;5953;52.372;9.918;2023-04-01T05:11:44;2.47;;;1.20;;
11791;SDS011;5953;52.372;9.918;2023-04-01T05:14:13;1.00;;;0.83;;
11791;SDS011;5953;52.372;9.918;2023-04-01T05:16:41;2.57;;;1.10;;
11791;SDS011;5953;52.372;9.918;2023-04-01T05:19:09;3.03;;;1.10;;
11791;SDS011;5953;52.372;9.918;2023-04-01T05:21:36;3.60;;;1.80;;
11791;SDS011;5953;52.372;9.918;2023-04-01T05:24:07;4.07;;;1.10;;
11791;SDS011;5953;52.372;9.918;2023-04-01T05:26:35;3.73;;;1.20;;
11791;SDS011;5953;52.372;9.918;2023-04-01T05:29:04;3.87;;;1.20;;
11791;SDS011;5953;52.372;9.918;2023-04-01T05:31:32;2.33;;;1.17;;
11791;SDS011;5953;52.372;9.918;2023-04-01T05:34:00;2.87;;;1.00;;
11791;SDS011;5953;52.372;9.918;2023-04-01T05:36:28;4.50;;;1.23;;
11791;SDS011;5953;52.372;9.918;2023-04-01T05:38:56;2.67;;;1.37;;
11791;SDS011;5953;52.372;9.918;2023-04-01T05:41:24;1.87;;;1.10;;
11791;SDS011;5953;52.372;9.918;2023-04-01T05:43:51;5.47;;;1.30;;
11791;SDS011;5953;52.372;9.918;2023-04-01T05:46:21;3.30;;;1.27;;
11791;SDS011;5953;52.372;9.918;2023-04-01T05:48:48;2.67;;;1.13;;
11791;SDS011;5953;52.372;9.918;2023-04-01T05:51:16;2.50;;;1.10;;
11791;SDS011;5953;52.372;9.918;2023-04-01T05:53:44;2.17;;;1.13;;
11791;SDS011;5953;52.372;9.918;2023-04-01T05:56:12;3.83;;;1.33;;
11791;SDS011;5953;52.372;9.918;2023-04-01T05:58:39;4.13;;;1.30;;
11791;SDS011;5953;52.372;9.918;2023-04-01T06:01:08;2.63;;;1.60;;
11791;SDS011;5953;52.372;9.918;2023-04-01T06:03:43;3.27;;;1.10;;
11791;SDS011;5953;52.372;9.918;2023-04-01T06:06:11;1.93;;;1.10;;
11791;SDS011;5953;52.372;9.918;2023-04-01T06:08:42;3.63;;;1.83;;
11791;SDS011;5953;52.372;9.918;2023-04-01T06:11:14;3.70;;;1.57;;
11791;SDS011;5953;52.372;9.918;2023-04-01T06:14:05;2.43;;;1.50;;
11791;SDS011;5953;52.372;9.918;2023-04-01T06:16:48;2.23;;;1.50;;
11791;SDS011;5953;52.372;9.918;2023-04-01T06:19:29;3.03;;;1.70;;
11791;SDS011;5953;52.372;9.918;2023-04-01T06:22:08;3.00;;;1.90;;
11791;SDS011;5953;52.372;9.918;2023-04-01T06:25:04;2.90;;;2.10;;
11791;SDS011;5953;52.372;9.918;2023-04-01T06:27:48;3.57;;;2.00;;
11791;SDS011;5953;52.372;9.918;2023-04-01T06:30:30;4.30;;;1.67;;
11791;SDS011;5953;52.372;9.918;2023-04-01T06:33:06;6.37;;;1.47;;
11791;SDS011;5953;52.372;9.918;2023-04-01T06:35:48;3.37;;;1.97;;
11791;SDS011;5953;52.372;9.918;2023-04-01T06:38:30;3.10;;;1.80;;
11791;SDS011;5953;52.372;9.918;2023-04-01T06:44:16;2.47;;;1.63;;
11791;SDS011;5953;52.372;9.918;2023-04-01T06:46:50;3.77;;;2.00;;
11791;SDS011;5953;52.372;9.918;2023-04-01T06:49:27;2.50;;;2.03;;
11791;SDS011;5953;52.372;9.918;2023-04-01T06:52:08;3.20;;;1.90;;
11791;SDS011;5953;52.372;9.918;2023-04-01T06:54:46;2.77;;;1.80;;
11791;SDS011;5953;52.372;9.918;2023-04-01T06:57:19;3.57;;;1.63;;
11791;SDS011;5953;52.372;9.918;2023-04-01T06:59:51;3.77;;;1.40;;
11791;SDS011;5953;52.372;9.918;2023-04-01T07:02:23;5.13;;;1.50;;
11791;SDS011;5953;52.372;9.918;2023-04-01T07:04:55;2.97;;;1.50;;
11791;SDS011;5953;52.372;9.918;2023-04-01T07:07:29;3.13;;;1.70;;
11791;SDS011;5953;52.372;9.918;2023-04-01T07:10:02;4.87;;;2.00;;
11791;SDS011;5953;52.372;9.918;2023-04-01T07:12:38;3.67;;;1.80;;
11791;SDS011;5953;52.372;9.918;2023-04-01T07:15:13;3.90;;;2.07;;
11791;SDS011;5953;52.372;9.918;2023-04-01T07:17:44;1.80;;;1.47;;
11791;SDS011;5953;52.372;9.918;2023-04-01T07:20:16;2.73;;;1.70;;
11791;SDS011;5953;52.372;9.918;2023-04-01T07:22:49;1.57;;;1.27;;
11791;SDS011;5953;52.372;9.918;2023-04-01T07:25:20;3.60;;;1.30;;
11791;SDS011;5953;52.372;9.918;2023-04-01T07:27:52;3.03;;;1.23;;
11791;SDS011;5953;52.372;9.918;2023-04-01T07:30:22;2.83;;;1.43;;
11791;SDS011;5953;52.372;9.918;2023-04-01T07:32:52;3.20;;;1.50;;
11791;SDS011;5953;52.372;9.918;2023-04-01T07:35:27;5.67;;;1.60;;
11791;SDS011;5953;52.372;9.918;2023-04-01T07:38:07;3.43;;;1.50;;
11791;SDS011;5953;52.372;9.918;2023-04-01T07:40:45;2.47;;;1.83;;
11791;SDS011;5953;52.372;9.918;2023-04-01T07:43:27;2.47;;;1.33;;
11791;SDS011;5953;52.372;9.918;2023-04-01T07:46:06;2.60;;;1.43;;
11791;SDS011;5953;52.372;9.918;2023-04-01T07:48:44;3.23;;;1.50;;
11791;SDS011;5953;52.372;9.918;2023-04-01T07:51:19;2.83;;;1.30;;
11791;SDS011;5953;52.372;9.918;2023-04-01T07:53:56;2.57;;;1.60;;
11791;SDS011;5953;52.372;9.918;2023-04-01T07:56:32;3.60;;;1.50;;
11791;SDS011;5953;52.372;9.918;2023-04-01T07:59:06;2.40;;;1.10;;
11791;SDS011;5953;52.372;9.918;2023-04-01T08:01:41;2.60;;;1.10;;
11791;SDS011;5953;52.372;9.918;2023-04-01T08:04:18;2.67;;;1.30;;
11791;SDS011;5953;52.372;9.918;2023-04-01T08:06:53;1.67;;;0.90;;
11791;SDS011;5953;52.372;9.918;2023-04-01T08:09:29;2.20;;;1.40;;
11791;SDS011;5953;52.372;9.918;2023-04-01T08:12:10;3.13;;;1.27;;
11791;SDS011;5953;52.372;9.918;2023-04-01T08:14:48;2.40;;;1.30;;
11791;SDS011;5953;52.372;9.918;2023-04-01T08:17:26;1.50;;;1.10;;
11791;SDS011;5953;52.372;9.918;2023-04-01T08:20:02;2.27;;;1.00;;
11791;SDS011;5953;52.372;9.918;2023-04-01T08:22:45;2.27;;;1.30;;
11791;SDS011;5953;52.372;9.918;2023-04-01T08:25:21;1.47;;;1.00;;
11791;SDS011;5953;52.372;9.918;2023-04-01T08:27:53;2.17;;;1.50;;
11791;SDS011;5953;52.372;9.918;2023-04-01T08:30:28;2.87;;;1.00;;
11791;SDS011;5953;52.372;9.918;2023-04-01T08:33:09;2.03;;;1.17;;
11791;SDS011;5953;52.372;9.918;2023-04-01T08:35:41;2.90;;;1.17;;
11791;SDS011;5953;52.372;9.918;2023-04-01T08:38:15;3.07;;;1.00;;
11791;SDS011;5953;52.372;9.918;2023-04-01T08:41:01;4.93;;;1.13;;
11791;SDS011;5953;52.372;9.918;2023-04-01T08:43:51;3.07;;;1.10;;
11791;SDS011;5953;52.372;9.918;2023-04-01T08:46:56;2.10;;;1.17;;
11791;SDS011;5953;52.372;9.918;2023-04-01T08:49:49;1.83;;;0.80;;
11791;SDS011;5953;52.372;9.918;2023-04-01T08:52:33;0.70;;;0.60;;
11791;SDS011;5953;52.372;9.918;2023-04-01T08:58:06;2.23;;;0.90;;
11791;SDS011;5953;52.372;9.918;2023-04-01T09:00:51;3.63;;;1.23;;
11791;SDS011;5953;52.372;9.918;2023-04-01T09:06:29;2.10;;;0.90;;
11791;SDS011;5953;52.372;9.918;2023-04-01T09:09:09;1.83;;;1.03;;
11791;SDS011;5953;52.372;9.918;2023-04-01T09:12:07;2.17;;;0.87;;
11791;SDS011;5953;52.372;9.918;2023-04-01T09:14:59;0.53;;;0.53;;
11791;SDS011;5953;52.372;9.918;2023-04-01T09:20:57;0.60;;;0.60;;
11791;SDS011;5953;52.372;9.918;2023-04-01T09:23:40;2.20;;;0.80;;
11791;SDS011;5953;52.372;9.918;2023-04-01T09:26:26;1.83;;;0.90;;
11791;SDS011;5953;52.372;9.918;2023-04-01T09:29:11;2.30;;;0.80;;
11791;SDS011;5953;52.372;9.918;2023-04-01T09:32:00;1.70;;;0.80;;
11791;SDS011;5953;52.372;9.918;2023-04-01T09:34:49;1.00;;;0.80;;
11791;SDS011;5953;52.372;9.918;2023-04-01T09:37:21;2.70;;;0.70;;
11791;SDS011;5953;52.372;9.918;2023-04-01T09:40:14;1.67;;;0.90;;
11791;SDS011;5953;52.372;9.918;2023-04-01T09:42:45;1.13;;;0.83;;
11791;SDS011;5953;52.372;9.918;2023-04-01T09:45:33;0.80;;;0.80;;
11791;SDS011;5953;52.372;9.918;2023-04-01T09:48:14;1.20;;;0.67;;
11791;SDS011;5953;52.372;9.918;2023-04-01T09:50:56;1.93;;;0.90;;
11791;SDS011;5953;52.372;9.918;2023-04-01T09:53:36;2.03;;;0.80;;
11791;SDS011;5953;52.372;9.918;2023-04-01T09:56:27;1.00;;;0.63;;
11791;SDS011;5953;52.372;9.918;2023-04-01T10:08:36;2.63;;;0.70;;
11791;SDS011;5953;52.372;9.918;2023-04-01T10:20:52;1.20;;;0.60;;
11791;SDS011;5953;52.372;9.918;2023-04-01T10:23:41;2.63;;;0.93;;
11791;SDS011;5953;52.372;9.918;2023-04-01T10:26:21;2.60;;;0.83;;
11791;SDS011;5953;52.372;9.918;2023-04-01T10:35:44;0.93;;;0.70;;
11791;SDS011;5953;52.372;9.918;2023-04-01T10:44:50;0.60;;;0.60;;
11791;SDS011;5953;52.372;9.918;2023-04-01T10:51:00;1.90;;;0.60;;
11791;SDS011;5953;52.372;9.918;2023-04-01T10:53:41;1.53;;;0.70;;
11791;SDS011;5953;52.372;9.918;2023-04-01T10:56:32;1.63;;;0.67;;
11791;SDS011;5953;52.372;9.918;2023-04-01T10:59:20;1.53;;;0.73;;
11791;SDS011;5953;52.372;9.918;2023-04-01T11:02:22;2.70;;;0.80;;
11791;SDS011;5953;52.372;9.918;2023-04-01T11:12:04;2.10;;;0.97;;
11791;SDS011;5953;52.372;9.918;2023-04-01T11:14:52;3.13;;;1.13;;
11791;SDS011;5953;52.372;9.918;2023-04-01T11:18:11;0.67;;;0.67;;
11791;SDS011;5953;52.372;9.918;2023-04-01T11:24:00;0.90;;;0.73;;
11791;SDS011;5953;52.372;9.918;2023-04-01T11:26:59;1.30;;;0.97;;
11791;SDS011;5953;52.372;9.918;2023-04-01T11:29:53;1.90;;;1.07;;
11791;SDS011;5953;52.372;9.918;2023-04-01T11:32:37;1.53;;;1.40;;
11791;SDS011;5953;52.372;9.918;2023-04-01T11:38:07;2.30;;;1.20;;
11791;SDS011;5953;52.372;9.918;2023-04-01T11:40:47;2.17;;;0.97;;
11791;SDS011;5953;52.372;9.918;2023-04-01T11:43:24;0.70;;;0.60;;
11791;SDS011;5953;52.372;9.918;2023-04-01T11:46:00;1.77;;;0.57;;
11791;SDS011;5953;52.372;9.918;2023-04-01T11:48:53;0.90;;;0.70;;
11791;SDS011;5953;52.372;9.918;2023-04-01T11:54:21;1.67;;;0.80;;
11791;SDS011;5953;52.372;9.918;2023-04-01T11:57:05;1.83;;;0.67;;
11791;SDS011;5953;52.372;9.918;2023-04-01T11:59:54;0.90;;;0.70;;
11791;SDS011;5953;52.372;9.918;2023-04-01T12:02:43;2.47;;;0.70;;
11791;SDS011;5953;52.372;9.918;2023-04-01T12:05:31;1.97;;;0.80;;
11791;SDS011;5953;52.372;9.918;2023-04-01T12:08:09;2.33;;;0.90;;
11791;SDS011;5953;52.372;9.918;2023-04-01T12:10:48;1.77;;;1.00;;
11791;SDS011;5953;52.372;9.918;2023-04-01T12:13:25;1.87;;;0.90;;
11791;SDS011;5953;52.372;9.918;2023-04-01T12:18:54;0.87;;;0.83;;
11791;SDS011;5953;52.372;9.918;2023-04-01T12:21:27;1.53;;;0.83;;
11791;SDS011;5953;52.372;9.918;2023-04-01T12:26:59;3.43;;;1.00;;
11791;SDS011;5953;52.372;9.918;2023-04-01T12:29:53;1.83;;;0.70;;
11791;SDS011;5953;52.372;9.918;2023-04-01T12:32:45;1.43;;;0.80;;
11791;SDS011;5953;52.372;9.918;2023-04-01T12:35:23;1.90;;;0.60;;
11791;SDS011;5953;52.372;9.918;2023-04-01T12:37:57;0.50;;;0.50;;
11791;SDS011;5953;52.372;9.918;2023-04-01T12:40:45;2.60;;;1.00;;
11791;SDS011;5953;52.372;9.918;2023-04-01T12:43:23;1.23;;;0.73;;
11791;SDS011;5953;52.372;9.918;2023-04-01T12:46:19;0.67;;;0.67;;
11791;SDS011;5953;52.372;9.918;2023-04-01T12:49:01;0.90;;;0.80;;
11791;SDS011;5953;52.372;9.918;2023-04-01T12:54:42;0.50;;;0.43;;
11791;SDS011;5953;52.372;9.918;2023-04-01T12:58:02;0.43;;;0.40;;
11791;SDS011;5953;52.372;9.918;2023-04-01T13:00:58;1.17;;;0.53;;
11791;SDS011;5953;52.372;9.918;2023-04-01T13:03:50;0.50;;;0.50;;
11791;SDS011;5953;52.372;9.918;2023-04-01T13:06:38;0.97;;;0.60;;
11791;SDS011;5953;52.372;9.918;2023-04-01T13:09:19;1.20;;;0.47;;
11791;SDS011;5953;52.372;9.918;2023-04-01T13:12:06;0.50;;;0.40;;
11791;SDS011;5953;52.372;9.918;2023-04-01T13:14:51;0.63;;;0.50;;
11791;SDS011;5953;52.372;9.918;2023-04-01T13:17:33;0.50;;;0.50;;
11791;SDS011;5953;52.372;9.918;2023-04-01T13:20:11;1.70;;;0.87;;
11791;SDS011;5953;52.372;9.918;2023-04-01T13:22:51;1.43;;;0.90;;
11791;SDS011;5953;52.372;9.918;2023-04-01T13:25:29;1.77;;;0.90;;
11791;SDS011;5953;52.372;9.918;2023-04-01T13:28:05;2.23;;;0.80;;
11791;SDS011;5953;52.372;9.918;2023-04-01T13:30:41;1.63;;;0.80;;
11791;SDS011;5953;52.372;9.918;2023-04-01T13:33:14;0.90;;;0.70;;
11791;SDS011;5953;52.372;9.918;2023-04-01T13:35:52;1.33;;;0.83;;
11791;SDS011;5953;52.372;9.918;2023-04-01T13:38:42;1.17;;;0.90;;
11791;SDS011;5953;52.372;9.918;2023-04-01T13:41:26;1.83;;;0.97;;
11791;SDS011;5953;52.372;9.918;2023-04-01T13:44:06;0.90;;;0.90;;
11791;SDS011;5953;52.372;9.918;2023-04-01T13:46:43;0.90;;;0.80;;
11791;SDS011;5953;52.372;9.918;2023-04-01T13:49:24;0.90;;;0.90;;
11791;SDS011;5953;52.372;9.918;2023-04-01T13:58:20;1.07;;;1.07;;
11791;SDS011;5953;52.372;9.918;2023-04-01T14:00:59;1.57;;;1.47;;
11791;SDS011;5953;52.372;9.918;2023-04-01T14:03:39;1.40;;;1.30;;
11791;SDS011;5953;52.372;9.918;2023-04-01T14:06:18;1.30;;;1.20;;
11791;SDS011;5953;52.372;9.918;2023-04-01T14:09:14;1.07;;;1.00;;
11791;SDS011;5953;52.372;9.918;2023-04-01T14:11:53;1.23;;;0.80;;
11791;SDS011;5953;52.372;9.918;2023-04-01T14:14:31;0.90;;;0.90;;
11791;SDS011;5953;52.372;9.918;2023-04-01T14:20:22;1.23;;;1.13;;
11791;SDS011;5953;52.372;9.918;2023-04-01T14:25:54;1.40;;;1.30;;
11791;SDS011;5953;52.372;9.918;2023-04-01T14:28:31;1.37;;;1.17;;
11791;SDS011;5953;52.372;9.918;2023-04-01T14:34:12;0.90;;;0.90;;
11791;SDS011;5953;52.372;9.918;2023-04-01T14:36:51;1.00;;;1.00;;
11791;SDS011;5953;52.372;9.918;2023-04-01T14:42:29;0.97;;;0.97;;
11791;SDS011;5953;52.372;9.918;2023-04-01T14:48:05;1.00;;;0.90;;
11791;SDS011;5953;52.372;9.918;2023-04-01T14:50:43;1.77;;;1.00;;
11791;SDS011;5953;52.372;9.918;2023-04-01T14:53:16;0.90;;;0.90;;
11791;SDS011;5953;52.372;9.918;2023-04-01T14:55:55;0.77;;;0.77;;
11791;SDS011;5953;52.372;9.918;2023-04-01T14:58:27;1.20;;;;;
11791;SDS011;5953;52.372;9.918;2023-04-01T15:01:26;1.20;;;1.10;;
11791;SDS011;5953;52.372;9.918;2023-04-01T15:04:14;1.67;;;1.10;;
11791;SDS011;5953;52.372;9.918;2023-04-01T15:06:57;0.80;;;0.80;;
11791;SDS011;5953;52.372;9.918;2023-04-01T15:09:35;1.57;;;0.80;;
11791;SDS011;5953;52.372;9.918;2023-04-01T15:12:16;0.70;;;0.70;;
11791;SDS011;5953;52.372;9.918;2023-04-01T15:14:58;0.70;;;0.70;;
11791;SDS011;5953;52.372;9.918;2023-04-01T15:17:50;0.60;;;0.60;;
11791;SDS011;5953;52.372;9.918;2023-04-01T15:20:31;1.17;;;0.80;;
11791;SDS011;5953;52.372;9.918;2023-04-01T15:23:12;1.60;;;1.10;;
11791;SDS011;5953;52.372;9.918;2023-04-01T15:28:49;0.70;;;0.70;;
11791;SDS011;5953;52.372;9.918;2023-04-01T15:31:31;1.03;;;0.90;;
11791;SDS011;5953;52.372;9.918;2023-04-01T15:34:13;0.70;;;0.70;;
11791;SDS011;5953;52.372;9.918;2023-04-01T15:36:51;0.80;;;0.80;;
11791;SDS011;5953;52.372;9.918;2023-04-01T15:39:24;2.20;;;1.00;;
11791;SDS011;5953;52.372;9.918;2023-04-01T15:42:11;1.10;;;1.00;;
11791;SDS011;5953;52.372;9.918;2023-04-01T15:44:54;0.90;;;0.90;;
11791;SDS011;5953;52.372;9.918;2023-04-01T15:47:37;1.70;;;1.07;;
11791;SDS011;5953;52.372;9.918;2023-04-01T15:50:27;1.23;;;1.07;;
11791;SDS011;5953;52.372;9.918;2023-04-01T15:53:11;0.70;;;0.70;;
11791;SDS011;5953;52.372;9.918;2023-04-01T15:55:53;0.60;;;0.60;;
11791;SDS011;5953;52.372;9.918;2023-04-01T15:58:33;1.73;;;0.90;;
11791;SDS011;5953;52.372;9.918;2023-04-01T16:01:16;1.60;;;0.90;;
11791;SDS011;5953;52.372;9.918;2023-04-01T16:03:55;1.00;;;1.00;;
11791;SDS011;5953;52.372;9.918;2023-04-01T16:06:44;0.73;;;0.73;;
11791;SDS011;5953;52.372;9.918;2023-04-01T16:09:34;0.70;;;0.70;;
11791;SDS011;5953;52.372;9.918;2023-04-01T16:12:13;1.20;;;1.10;;
11791;SDS011;5953;52.372;9.918;2023-04-01T16:14:49;1.27;;;1.00;;
11791;SDS011;5953;52.372;9.918;2023-04-01T16:17:30;0.90;;;0.70;;
11791;SDS011;5953;52.372;9.918;2023-04-01T16:20:14;0.77;;;0.70;;
11791;SDS011;5953;52.372;9.918;2023-04-01T16:22:49;3.43;;;0.97;;
11791;SDS011;5953;52.372;9.918;2023-04-01T16:25:22;0.90;;;0.90;;
11791;SDS011;5953;52.372;9.918;2023-04-01T16:28:02;0.70;;;0.70;;
11791;SDS011;5953;52.372;9.918;2023-04-01T16:30:48;0.80;;;0.80;;
11791;SDS011;5953;52.372;9.918;2023-04-01T16:33:22;1.30;;;1.20;;
11791;SDS011;5953;52.372;9.918;2023-04-01T16:36:07;1.07;;;0.93;;
11791;SDS011;5953;52.372;9.918;2023-04-01T16:38:42;0.87;;;0.87;;
11791;SDS011;5953;52.372;9.918;2023-04-01T16:41:17;0.93;;;0.90;;
11791;SDS011;5953;52.372;9.918;2023-04-01T16:43:48;1.10;;;0.87;;
11791;SDS011;5953;52.372;9.918;2023-04-01T16:46:26;2.90;;;1.10;;
11791;SDS011;5953;52.372;9.918;2023-04-01T16:48:59;0.77;;;0.77;;
11791;SDS011;5953;52.372;9.918;2023-04-01T16:51:36;1.03;;;1.00;;
11791;SDS011;5953;52.372;9.918;2023-04-01T16:54:13;1.40;;;1.00;;
11791;SDS011;5953;52.372;9.918;2023-04-01T16:56:47;1.03;;;1.00;;
11791;SDS011;5953;52.372;9.918;2023-04-01T16:59:19;1.20;;;1.10;;
11791;SDS011;5953;52.372;9.918;2023-04-01T17:01:53;0.93;;;0.93;;
11791;SDS011;5953;52.372;9.918;2023-04-01T17:04:25;1.00;;;0.97;;
11791;SDS011;5953;52.372;9.918;2023-04-01T17:07:04;1.37;;;1.27;;
11791;SDS011;5953;52.372;9.918;2023-04-01T17:09:42;2.23;;;1.20;;
11791;SDS011;5953;52.372;9.918;2023-04-01T17:12:20;1.13;;;0.83;;
11791;SDS011;5953;52.372;9.918;2023-04-01T17:14:54;1.30;;;1.20;;
11791;SDS011;5953;52.372;9.918;2023-04-01T17:17:37;1.63;;;1.13;;
11791;SDS011;5953;52.372;9.918;2023-04-01T17:20:14;1.70;;;1.60;;
11791;SDS011;5953;52.372;9.918;2023-04-01T17:22:55;1.50;;;1.40;;
11791;SDS011;5953;52.372;9.918;2023-04-01T17:25:32;1.03;;;1.03;;
11791;SDS011;5953;52.372;9.918;2023-04-01T17:28:09;1.23;;;1.10;;
11791;SDS011;5953;52.372;9.918;2023-04-01T17:30:45;1.30;;;1.20;;
11791;SDS011;5953;52.372;9.918;2023-04-01T17:33:27;1.17;;;1.07;;
11791;SDS011;5953;52.372;9.918;2023-04-01T17:36:03;1.53;;;1.43;;
11791;SDS011;5953;52.372;9.918;2023-04-01T17:38:54;1.20;;;1.10;;
11791;SDS011;5953;52.372;9.918;2023-04-01T17:41:31;0.93;;;0.93;;
11791;SDS011;5953;52.372;9.918;2023-04-01T17:44:14;1.60;;;1.50;;
11791;SDS011;5953;52.372;9.918;2023-04-01T17:46:56;1.10;;;1.00;;